Time;durP1;ratioP1;P1;durP2;ratioP2;P2;SDS_P1;SDS_P2;PMS_P1;PMS_P2;Temp;Humidity;BMP_temperature;BMP_pressure;BME280_temperature;BME280_humidity;BME280_pressure;Samples;Min_cycle;Max_cycle;Signal;HPM_P1;HPM_P2
2022/08/13 00:01:25;;;;;;;9.38;5.40;;;;;;;19.25;64.15;93264.03;5039328;28;20021;-56
2022/08/13 00:03:55;;;;;;;7.35;5.80;;;;;;;19.21;64.16;93255.41;5050521;28;20482;-56
2022/08/13 00:09:06;;;;;;;6.55;5.38;;;;;;;19.12;65.19;93255.56;5045360;28;20108;-57
2022/08/13 00:14:16;;;;;;;6.85;5.63;;;;;;;19.23;65.34;93254.81;5050387;28;20040;-58
2022/08/13 00:27:34;;;;;;;4.80;4.00;;;;;;;19.80;63.65;93236.41;5128366;27;20816;-59
2022/08/13 00:30:01;;;;;;;4.82;4.30;;;;;;;19.59;64.02;93224.09;5127955;27;20039;-60
2022/08/13 00:32:29;;;;;;;4.63;3.75;;;;;;;19.56;64.40;93236.50;5124733;27;20043;-61
2022/08/13 00:34:58;;;;;;;4.35;3.95;;;;;;;19.36;64.84;93218.53;5119296;27;20028;-59
2022/08/13 00:37:25;;;;;;;6.15;4.22;;;;;;;19.37;65.39;93233.25;5128762;27;20031;-59
2022/08/13 00:39:51;;;;;;;4.18;3.78;;;;;;;19.31;65.36;93228.03;5127904;27;20054;-61
2022/08/13 00:42:21;;;;;;;4.60;3.72;;;;;;;19.21;65.61;93223.91;5123725;27;20048;-62
2022/08/13 00:44:47;;;;;;;4.68;4.22;;;;;;;19.08;66.64;93222.44;5120318;28;20538;-62
2022/08/13 00:49:58;;;;;;;5.18;4.60;;;;;;;19.19;65.92;93218.19;5127293;28;20054;-59
2022/08/13 00:52:30;;;;;;;4.80;4.18;;;;;;;18.99;66.15;93214.19;5126330;28;20084;-58
2022/08/13 00:54:59;;;;;;;5.75;4.32;;;;;;;19.03;66.35;93215.16;5127137;27;20500;-57
2022/08/13 00:57:26;;;;;;;4.97;4.55;;;;;;;19.09;66.00;93212.72;5126909;27;20031;-58
2022/08/13 00:59:53;;;;;;;5.40;4.20;;;;;;;19.04;66.16;93208.22;5126489;27;20035;-58
2022/08/13 01:02:21;;;;;;;6.22;4.35;;;;;;;19.02;66.34;93204.56;5126354;27;20019;-58
2022/08/13 01:04:47;;;;;;;5.43;4.38;;;;;;;18.85;66.69;93192.44;5124862;28;20029;-58
2022/08/13 01:07:15;;;;;;;13.77;5.00;;;;;;;19.01;66.62;93211.53;5125982;27;20023;-58
2022/08/13 01:09:40;;;;;;;6.27;4.47;;;;;;;18.86;67.33;93212.75;5126031;27;20499;-57
2022/08/13 01:12:09;;;;;;;20.55;4.80;;;;;;;18.90;67.54;93208.13;5124152;27;20060;-59
2022/08/13 01:14:35;;;;;;;6.53;4.93;;;;;;;18.94;67.31;93213.22;5124164;28;20042;-57
2022/08/13 01:17:02;;;;;;;4.85;4.35;;;;;;;19.05;66.67;93206.16;5125523;27;20027;-50
2022/08/13 01:19:29;;;;;;;5.00;4.50;;;;;;;18.96;66.87;93209.81;5122853;27;20404;-57
2022/08/13 01:21:57;;;;;;;5.63;4.38;;;;;;;18.95;67.06;93197.19;5118118;28;20110;-58
2022/08/13 01:24:23;;;;;;;5.18;3.88;;;;;;;18.98;66.79;93201.53;5122570;28;20023;-58
2022/08/13 01:26:48;;;;;;;4.65;4.07;;;;;;;18.86;67.31;93202.28;5123290;27;20093;-57
2022/08/13 01:29:16;;;;;;;4.47;4.07;;;;;;;18.75;67.27;93196.72;5112998;28;20022;-56
2022/08/13 01:31:44;;;;;;;4.53;3.63;;;;;;;18.76;67.30;93193.28;5109893;28;20027;-56
2022/08/13 01:34:09;;;;;;;4.18;3.78;;;;;;;18.80;67.07;93190.72;5096065;28;20027;-50
2022/08/13 01:36:35;;;;;;;5.18;4.25;;;;;;;18.71;67.00;93169.22;5104754;28;20023;-51
2022/08/13 01:39:04;;;;;;;4.65;4.15;;;;;;;18.78;66.92;93182.22;5113627;28;20035;-60
2022/08/13 01:41:30;;;;;;;4.78;4.25;;;;;;;18.88;67.26;93187.69;5112460;28;20064;-58
2022/08/13 01:44:04;;;;;;;5.03;3.92;;;;;;;18.91;67.08;93180.88;5112538;28;20019;-58
2022/08/13 01:50:28;;;;;;;4.90;4.18;;;;;;;18.74;67.60;93190.38;5112450;28;20019;-54
2022/08/13 01:51:59;;;;;;;4.72;4.30;;;;;;;18.66;67.64;93184.31;5113524;28;20493;-52
2022/08/13 01:54:25;;;;;;;4.15;3.60;;;;;;;18.65;67.55;93176.50;5113360;28;20032;-54
2022/08/13 01:56:50;;;;;;;5.93;4.07;;;;;;;18.72;67.04;93170.69;5111802;28;20534;-56
2022/08/13 01:59:16;;;;;;;6.07;3.85;;;;;;;18.65;67.62;93168.84;5111888;28;20027;-51
2022/08/13 02:01:42;;;;;;;4.45;3.75;;;;;;;18.70;67.72;93173.38;5113225;28;20023;-55
2022/08/13 02:04:07;;;;;;;5.15;4.53;;;;;;;18.68;67.50;93164.84;5113273;28;20488;-54
2022/08/13 02:06:34;;;;;;;6.68;4.28;;;;;;;18.55;67.47;93145.16;5112817;28;20100;-56
2022/08/13 02:09:02;;;;;;;4.13;3.78;;;;;;;18.66;67.53;93166.78;5112909;28;20488;-52
2022/08/13 02:11:31;;;;;;;8.65;3.92;;;;;;;18.47;68.28;93165.00;5112319;27;20020;-53
2022/08/13 02:13:57;;;;;;;4.28;3.88;;;;;;;18.60;67.98;93172.03;5092443;28;20024;-52
2022/08/13 02:16:23;;;;;;;10.38;3.88;;;;;;;18.52;68.12;93169.47;5092229;28;20393;-53
2022/08/13 02:18:52;;;;;;;4.05;3.65;;;;;;;18.54;68.06;93169.59;5092267;28;20073;-55
2022/08/13 02:21:20;;;;;;;4.65;4.13;;;;;;;18.56;67.54;93169.00;5092558;28;20099;-52
2022/08/13 02:23:52;;;;;;;5.80;3.58;;;;;;;18.45;67.85;93172.53;5095274;28;20016;-57
2022/08/13 02:26:18;;;;;;;4.57;3.55;;;;;;;18.40;67.98;93167.97;5112387;28;20039;-58
2022/08/13 02:28:44;;;;;;;4.10;3.47;;;;;;;18.46;67.80;93171.91;5112774;28;20028;-58
2022/08/13 02:31:10;;;;;;;3.95;3.63;;;;;;;18.49;67.81;93169.97;5112431;28;20465;-58
2022/08/13 02:33:37;;;;;;;4.40;4.00;;;;;;;18.45;67.74;93173.22;5112671;27;20027;-58
2022/08/13 02:36:10;;;;;;;7.65;4.40;;;;;;;18.47;67.66;93176.16;5112266;28;20026;-58
2022/08/13 02:38:38;;;;;;;4.60;4.20;;;;;;;18.32;67.54;93154.22;5103508;28;20416;-58
2022/08/13 02:43:50;;;;;;;5.00;4.20;;;;;;;18.30;68.30;93182.06;5091853;28;20035;-58
2022/08/13 02:46:16;;;;;;;7.28;4.28;;;;;;;18.31;68.08;93182.78;5091780;28;20042;-58
2022/08/13 02:48:42;;;;;;;5.97;4.10;;;;;;;18.18;68.93;93184.13;5091624;28;20020;-58
2022/08/13 02:51:10;;;;;;;4.53;3.95;;;;;;;18.30;68.47;93178.56;5091681;28;20028;-58
2022/08/13 02:53:37;;;;;;;4.68;4.28;;;;;;;18.42;68.06;93176.50;5091689;28;20094;-59
2022/08/13 02:56:05;;;;;;;5.65;3.60;;;;;;;18.45;67.92;93184.41;5091466;28;20492;-59
2022/08/13 02:58:31;;;;;;;4.28;3.70;;;;;;;18.41;68.59;93189.72;5091530;28;20443;-59
2022/08/13 03:00:58;;;;;;;4.55;4.15;;;;;;;18.38;68.94;93188.16;5091724;28;20032;-59
2022/08/13 03:03:26;;;;;;;4.25;3.85;;;;;;;18.46;68.94;93188.69;5091400;28;20023;-60
2022/08/13 03:05:52;;;;;;;7.57;4.60;;;;;;;18.36;69.40;93190.84;5091623;28;20016;-60
2022/08/13 03:08:18;;;;;;;5.05;4.18;;;;;;;18.35;69.70;93186.56;5095049;28;20149;-59
2022/08/13 03:10:44;;;;;;;5.55;4.30;;;;;;;18.42;69.56;93190.47;5091611;28;20467;-59
2022/08/13 03:13:20;;;;;;;5.63;4.63;;;;;;;18.51;68.71;93192.44;5090397;28;20470;-59
2022/08/13 03:15:47;;;;;;;8.20;4.40;;;;;;;18.47;68.89;93187.34;5089923;28;20405;-60
2022/08/13 03:18:13;;;;;;;4.53;4.13;;;;;;;18.51;69.10;93195.97;5091173;28;20056;-60
2022/08/13 03:20:41;;;;;;;5.00;4.60;;;;;;;18.45;69.14;93195.59;5091402;28;20134;-60
2022/08/13 03:23:08;;;;;;;5.45;4.95;;;;;;;18.36;69.41;93196.44;5107191;28;20028;-60
2022/08/13 03:25:34;;;;;;;4.63;4.15;;;;;;;18.38;68.46;93195.81;5092306;28;20482;-61
2022/08/13 03:28:01;;;;;;;6.35;4.18;;;;;;;18.35;68.65;93194.22;5091306;28;20104;-61
2022/08/13 03:30:27;;;;;;;4.43;4.03;;;;;;;18.22;69.39;93203.94;5091281;28;20024;-61
2022/08/13 03:32:53;;;;;;;4.72;4.18;;;;;;;18.32;69.09;93196.16;5090840;28;20508;-60
2022/08/13 03:35:21;;;;;;;5.30;4.78;;;;;;;18.38;69.41;93195.81;5090821;28;20112;-56
2022/08/13 03:37:53;;;;;;;10.60;4.45;;;;;;;18.44;69.19;93187.78;5091971;28;20027;-56
2022/08/13 03:40:20;;;;;;;4.57;4.18;;;;;;;18.48;68.86;93196.44;5111518;28;20465;-54
2022/08/13 03:42:48;;;;;;;5.05;4.57;;;;;;;18.44;69.12;93196.19;5111007;28;20026;-55
2022/08/13 03:45:15;;;;;;;4.55;4.15;;;;;;;18.46;68.94;93199.13;5110312;28;20102;-55
2022/08/13 03:47:42;;;;;;;7.47;4.97;;;;;;;18.47;68.91;93195.75;5111355;28;20088;-55
2022/08/13 03:50:09;;;;;;;5.60;4.50;;;;;;;18.41;69.11;93194.63;5110723;28;20044;-55
2022/08/13 03:52:35;;;;;;;4.78;4.22;;;;;;;18.48;68.61;93191.59;5110889;28;20030;-56
2022/08/13 03:55:01;;;;;;;4.75;3.90;;;;;;;18.51;68.52;93193.19;5110822;28;20031;-56
2022/08/13 03:57:28;;;;;;;6.28;4.00;;;;;;;18.49;68.67;93193.06;5111206;28;20032;-54
2022/08/13 03:59:55;;;;;;;4.30;3.83;;;;;;;18.44;68.75;93185.00;5111147;28;20404;-56
2022/08/13 04:02:20;;;;;;;4.65;4.15;;;;;;;18.41;68.76;93186.94;5110014;28;20563;-55
2022/08/13 04:04:47;;;;;;;5.28;4.22;;;;;;;18.38;69.02;93188.16;5103778;28;20074;-56
2022/08/13 04:07:20;;;;;;;4.30;3.90;;;;;;;18.26;69.50;93187.41;5090415;28;20051;-57
2022/08/13 04:09:46;;;;;;;6.43;4.47;;;;;;;18.26;69.69;93186.69;5090693;28;20028;-56
2022/08/13 04:12:12;;;;;;;5.72;3.95;;;;;;;18.33;69.29;93186.44;5090649;28;20073;-54
2022/08/13 04:14:39;;;;;;;5.57;4.40;;;;;;;18.28;69.37;93175.63;5090237;28;20560;-51
2022/08/13 04:17:05;;;;;;;6.35;4.38;;;;;;;18.24;69.57;93187.28;5089321;28;20028;-52
2022/08/13 04:19:33;;;;;;;7.65;4.60;;;;;;;18.26;69.83;93190.19;5092150;28;20032;-50
2022/08/13 04:21:59;;;;;;;5.03;4.53;;;;;;;18.37;69.61;93197.88;5110713;28;20563;-58
2022/08/13 04:24:27;;;;;;;10.95;5.68;;;;;;;18.29;70.00;93191.78;5101021;28;20104;-58
2022/08/13 04:26:54;;;;;;;7.60;5.32;;;;;;;18.35;69.91;93197.75;5089999;28;20043;-60
2022/08/13 04:29:20;;;;;;;13.40;5.22;;;;;;;18.29;70.13;93197.38;5090523;28;20393;-60
2022/08/13 04:31:45;;;;;;;5.80;4.95;;;;;;;18.39;69.89;93197.25;5108889;28;20031;-59
2022/08/13 04:34:11;;;;;;;5.97;4.82;;;;;;;18.35;70.09;93194.97;5110562;28;20020;-59
2022/08/13 04:36:36;;;;;;;11.52;5.85;;;;;;;18.21;70.81;93187.78;5110709;28;20015;-59
2022/08/13 04:39:02;;;;;;;6.72;5.57;;;;;;;18.41;70.64;93203.00;5098889;28;20081;-60
2022/08/13 04:41:27;;;;;;;7.95;5.72;;;;;;;18.55;69.93;93203.88;5090732;28;20020;-59
2022/08/13 04:43:53;;;;;;;7.68;5.53;;;;;;;18.61;69.59;93201.44;5110645;28;20019;-58
2022/08/13 04:46:19;;;;;;;6.85;6.10;;;;;;;18.70;68.88;93200.59;5110456;28;20416;-58
2022/08/13 04:48:45;;;;;;;5.53;5.03;;;;;;;18.75;68.32;93196.72;5110297;28;20023;-59
2022/08/13 04:51:11;;;;;;;5.55;5.05;;;;;;;18.79;67.99;93196.94;5110328;28;20027;-59
2022/08/13 04:53:37;;;;;;;11.48;5.22;;;;;;;18.84;67.80;93198.66;5110656;28;20031;-59
2022/08/13 04:56:03;;;;;;;7.00;5.15;;;;;;;18.92;67.85;93191.47;5109572;28;20095;-58
2022/08/13 04:58:33;;;;;;;6.57;5.85;;;;;;;18.93;68.41;93192.19;5110543;28;20112;-58
2022/08/13 05:00:59;;;;;;;6.90;5.95;;;;;;;18.97;68.71;93202.91;5102287;28;20035;-58
2022/08/13 05:03:25;;;;;;;7.95;5.43;;;;;;;18.99;68.32;93192.56;5092949;28;20031;-59
2022/08/13 05:05:52;;;;;;;6.50;5.03;;;;;;;18.99;68.51;93195.34;5099101;28;20514;-59
2022/08/13 05:08:18;;;;;;;5.55;5.05;;;;;;;18.99;68.01;93189.75;5114052;28;20042;-59
2022/08/13 05:10:48;;;;;;;8.10;4.60;;;;;;;18.99;67.52;93195.34;5113945;27;20024;-56
2022/08/13 05:13:32;;;;;;;5.82;5.18;;;;;;;19.05;67.35;93192.16;5113890;27;20023;-53
2022/08/13 05:15:59;;;;;;;7.55;5.47;;;;;;;19.02;66.93;93199.72;5112699;28;20024;-53
2022/08/13 05:18:27;;;;;;;5.57;5.07;;;;;;;19.04;67.10;93194.22;5114019;27;20048;-58
2022/08/13 05:20:53;;;;;;;5.80;5.20;;;;;;;19.01;67.19;93194.72;5110384;28;20112;-59
2022/08/13 05:23:20;;;;;;;6.70;4.82;;;;;;;18.92;67.69;93197.06;5112412;28;20019;-57
2022/08/13 05:25:46;;;;;;;6.15;5.38;;;;;;;19.03;67.33;93189.25;5095688;28;20031;-59
2022/08/13 05:28:11;;;;;;;5.05;4.65;;;;;;;19.05;67.36;93195.69;5104269;28;20016;-59
2022/08/13 05:30:39;;;;;;;7.50;6.75;;;;;;;19.08;67.23;93200.06;5101949;28;20024;-59
2022/08/13 05:33:18;;;;;;;7.72;6.00;;;;;;;19.06;67.79;93196.44;5103810;28;20019;-59
2022/08/13 05:35:45;;;;;;;9.95;7.63;;;;;;;19.14;66.22;93188.50;5104529;28;20007;-60
2022/08/13 05:38:11;;;;;;;11.00;7.45;;;;;;;19.16;65.06;93183.03;5100117;28;20059;-58
2022/08/13 05:40:38;;;;;;;6.43;5.82;;;;;;;19.26;65.85;93186.41;5097929;28;20073;-59
2022/08/13 05:43:13;;;;;;;7.65;5.90;;;;;;;19.34;65.03;93187.63;5104177;28;20513;-60
2022/08/13 05:45:41;;;;;;;7.63;5.68;;;;;;;19.40;64.97;93187.25;5100746;28;20050;-60
2022/08/13 05:48:07;;;;;;;5.43;4.93;;;;;;;19.39;64.99;93189.31;5105054;28;20047;-60
2022/08/13 05:50:33;;;;;;;9.13;5.55;;;;;;;19.37;65.23;93186.41;5102839;28;20074;-60
2022/08/13 05:53:09;;;;;;;19.67;8.70;;;;;;;19.46;65.52;93185.53;5101371;28;20024;-60
2022/08/13 05:55:40;;;;;;;8.57;7.78;;;;;;;19.49;64.84;93192.69;5112980;28;20491;-59
2022/08/13 05:58:07;;;;;;;9.40;7.38;;;;;;;19.53;65.00;93184.50;5100591;28;20032;-60
2022/08/13 06:03:27;;;;;;;9.75;6.95;;;;;;;19.69;64.13;93184.69;5110581;28;20027;-60
2022/08/13 06:05:57;;;;;;;8.95;7.32;;;;;;;19.82;63.62;93180.50;5102513;28;20017;-59
2022/08/13 06:08:28;;;;;;;10.73;7.60;;;;;;;19.87;63.56;93185.72;5107594;28;20020;-60
2022/08/13 06:10:54;;;;;;;6.90;5.57;;;;;;;19.94;63.50;93184.00;5113213;28;20415;-60
2022/08/13 06:13:19;;;;;;;12.75;6.57;;;;;;;19.99;62.82;93191.28;5109175;28;20095;-60
2022/08/13 06:15:57;;;;;;;8.40;7.30;;;;;;;20.09;62.85;93186.94;5100742;28;20489;-57
2022/08/13 06:18:24;;;;;;;11.40;4.88;;;;;;;20.10;62.63;93182.06;5100905;28;20031;-54
2022/08/13 06:20:52;;;;;;;7.60;4.25;;;;;;;20.21;61.67;93190.44;5105929;28;20031;-55
2022/08/13 06:23:17;;;;;;;4.30;3.90;;;;;;;20.32;60.26;93188.91;5110749;28;20102;-55
2022/08/13 06:25:43;;;;;;;6.80;4.30;;;;;;;20.40;59.37;93189.31;5090704;28;20123;-51
2022/08/13 06:28:10;;;;;;;5.53;4.70;;;;;;;20.46;58.02;93183.31;5092246;28;20401;-51
2022/08/13 06:30:38;;;;;;;4.82;4.03;;;;;;;20.56;58.23;93181.78;5106742;28;20038;-55
2022/08/13 06:33:04;;;;;;;4.70;3.97;;;;;;;20.61;58.48;93185.53;5111217;28;20020;-56
2022/08/13 06:35:31;;;;;;;6.47;4.22;;;;;;;20.71;59.66;93188.88;5106755;28;20020;-56
2022/08/13 06:37:57;;;;;;;4.70;3.78;;;;;;;20.78;58.67;93191.38;5109957;28;20111;-59
2022/08/13 06:40:23;;;;;;;5.35;4.35;;;;;;;20.79;58.52;93190.00;5091926;28;20055;-59
2022/08/13 06:42:50;;;;;;;4.93;4.43;;;;;;;20.83;58.67;93181.09;5104245;28;20072;-59
2022/08/13 06:45:19;;;;;;;7.65;5.32;;;;;;;20.84;58.93;93182.53;5110836;28;20036;-51
2022/08/13 06:47:45;;;;;;;11.98;4.90;;;;;;;20.83;59.38;93187.44;5098806;28;20027;-53
2022/08/13 06:50:11;;;;;;;51.83;7.97;;;;;;;20.83;59.58;93187.44;5110718;28;20053;-58
2022/08/13 06:52:39;;;;;;;12.77;5.40;;;;;;;20.86;59.73;93188.25;5102184;28;20016;-57
2022/08/13 06:55:07;;;;;;;5.88;4.72;;;;;;;20.82;58.89;93182.44;5103583;28;20141;-57
2022/08/13 06:57:33;;;;;;;5.30;4.80;;;;;;;20.90;58.47;93194.81;5099709;28;20035;-57
2022/08/13 06:59:59;;;;;;;8.35;4.70;;;;;;;20.96;58.25;93185.97;5096462;28;20497;-57
2022/08/13 07:02:25;;;;;;;11.20;5.40;;;;;;;20.96;58.86;93192.31;5107615;28;20160;-59
2022/08/13 07:04:56;;;;;;;6.07;5.00;;;;;;;20.94;59.60;93189.38;5095856;28;20024;-58
2022/08/13 07:07:21;;;;;;;15.45;6.72;;;;;;;20.96;58.94;93197.91;5111722;28;20023;-57
2022/08/13 07:09:48;;;;;;;12.88;5.43;;;;;;;20.94;59.92;93197.09;5108008;28;20031;-57
2022/08/13 07:12:13;;;;;;;7.38;5.40;;;;;;;20.97;60.75;93195.84;5104350;28;20107;-58
2022/08/13 07:14:43;;;;;;;9.32;5.35;;;;;;;20.99;60.88;93185.44;5100901;28;20119;-57
2022/08/13 07:17:10;;;;;;;7.13;5.82;;;;;;;20.89;61.82;93195.44;5099707;28;20115;-58
2022/08/13 07:19:37;;;;;;;6.90;5.57;;;;;;;20.93;62.07;93190.75;5101822;28;20074;-58
2022/08/13 07:22:05;;;;;;;6.82;5.47;;;;;;;20.92;60.92;93194.91;5100676;28;20032;-49
2022/08/13 07:24:32;;;;;;;13.68;5.70;;;;;;;20.97;60.53;93196.56;5099549;28;20095;-52
2022/08/13 07:27:03;;;;;;;6.25;4.70;;;;;;;20.95;61.11;93196.47;5098036;28;20039;-45
2022/08/13 07:29:30;;;;;;;8.88;5.80;;;;;;;21.00;61.82;93194.59;5099251;27;20429;-49
2022/08/13 07:32:00;;;;;;;8.57;5.75;;;;;;;20.85;61.77;93169.97;5099346;28;20038;-44
2022/08/13 07:34:28;;;;;;;7.18;6.05;;;;;;;20.98;61.07;93189.63;5101122;28;20067;-45
2022/08/13 07:36:55;;;;;;;6.55;5.95;;;;;;;21.07;61.60;93197.13;5097872;28;20039;-44
2022/08/13 07:39:22;;;;;;;6.90;5.78;;;;;;;21.08;61.35;93192.97;5100363;28;20035;-44
2022/08/13 07:41:48;;;;;;;8.68;5.78;;;;;;;21.10;61.73;93192.34;5098276;28;20500;-47
2022/08/13 07:44:22;;;;;;;7.13;5.82;;;;;;;21.23;59.89;93194.41;5101740;28;20027;-46
2022/08/13 07:46:53;;;;;;;6.53;5.28;;;;;;;21.31;59.19;93194.09;5100715;28;20060;-45
2022/08/13 07:49:19;;;;;;;9.10;5.53;;;;;;;21.33;58.87;93192.09;5099588;28;20034;-44
2022/08/13 07:51:47;;;;;;;5.97;4.53;;;;;;;21.35;58.66;93188.69;5100705;28;20036;-45
2022/08/13 07:54:13;;;;;;;6.70;5.53;;;;;;;21.33;58.46;93191.38;5099473;28;20058;-45
2022/08/13 07:56:39;;;;;;;5.43;4.93;;;;;;;21.31;59.12;93191.28;5098830;28;20456;-45
2022/08/13 07:59:12;;;;;;;8.30;5.30;;;;;;;21.36;59.42;93184.50;5102980;28;20024;-43
2022/08/13 08:01:48;;;;;;;5.68;4.95;;;;;;;21.36;58.24;93181.69;5099535;28;20077;-44
2022/08/13 08:04:17;;;;;;;6.10;4.63;;;;;;;21.43;58.42;93187.00;5099985;28;20016;-44
2022/08/13 08:06:45;;;;;;;6.47;5.80;;;;;;;21.51;58.56;93184.59;5103573;28;20022;-45
2022/08/13 08:09:16;;;;;;;5.85;4.70;;;;;;;21.58;58.98;93182.81;5102491;28;20024;-43
2022/08/13 08:14:27;;;;;;;7.50;5.20;;;;;;;21.81;58.15;93177.63;5098564;28;20036;-45
2022/08/13 08:16:54;;;;;;;6.65;5.00;;;;;;;21.87;56.41;93182.88;5099117;28;20103;-45
2022/08/13 08:19:21;;;;;;;5.53;5.00;;;;;;;21.96;56.33;93179.06;5097999;28;20129;-44
2022/08/13 08:21:47;;;;;;;6.75;5.38;;;;;;;22.09;56.73;93181.09;5099969;28;20115;-44
2022/08/13 08:24:14;;;;;;;36.63;8.88;;;;;;;22.19;56.27;93169.59;5102415;28;20035;-44
2022/08/13 08:26:40;;;;;;;7.55;5.90;;;;;;;22.34;54.86;93175.25;5090028;28;20050;-45
2022/08/13 08:29:09;;;;;;;11.15;6.20;;;;;;;22.35;55.91;93173.16;5090255;28;20020;-46
2022/08/13 08:31:38;;;;;;;20.00;5.85;;;;;;;22.47;55.54;93168.81;5090136;28;20023;-46
2022/08/13 08:34:05;;;;;;;8.13;5.30;;;;;;;22.54;55.12;93167.72;5104567;28;20027;-46
2022/08/13 08:36:31;;;;;;;5.25;4.75;;;;;;;22.63;54.93;93174.50;5110745;28;20031;-44
2022/08/13 08:44:29;;;;;;;7.05;5.20;;;;;;;22.83;51.86;93166.19;5105751;28;20530;-42
2022/08/13 09:03:56;;;;;;;7.30;6.60;;;;;;;23.29;50.98;93162.59;5063595;28;20611;-45
2022/08/13 09:06:23;;;;;;;5.90;5.30;;;;;;;23.12;51.14;93166.81;5063455;28;20032;-45
2022/08/13 09:08:52;;;;;;;6.28;5.60;;;;;;;23.04;51.68;93157.28;5055299;28;20579;-45
2022/08/13 09:11:19;;;;;;;6.22;5.47;;;;;;;22.88;52.11;93148.13;5049818;28;20028;-44
2022/08/13 09:13:48;;;;;;;7.97;5.50;;;;;;;22.88;51.49;93160.13;5051411;28;20037;-45
2022/08/13 09:16:16;;;;;;;6.28;5.57;;;;;;;22.73;52.72;93157.31;5050414;28;20569;-45
2022/08/13 09:18:43;;;;;;;7.13;5.95;;;;;;;22.52;53.63;93144.41;5052998;28;20021;-44
2022/08/13 09:21:08;;;;;;;8.95;6.07;;;;;;;22.62;53.74;93161.78;5058600;28;20029;-46
2022/08/13 09:23:34;;;;;;;6.18;5.57;;;;;;;22.57;53.82;93154.47;5056443;28;20047;-44
2022/08/13 09:26:04;;;;;;;10.18;6.65;;;;;;;22.60;54.05;93159.59;5055132;28;20044;-44
2022/08/13 09:28:30;;;;;;;8.35;6.57;;;;;;;22.55;53.90;93152.28;5053677;28;20537;-46
2022/08/13 09:30:55;;;;;;;8.13;6.57;;;;;;;22.45;54.56;93143.41;5050094;28;20520;-49
2022/08/13 09:33:23;;;;;;;8.65;7.57;;;;;;;22.39;54.24;93150.84;5052490;28;20028;-46
2022/08/13 09:35:51;;;;;;;9.80;6.57;;;;;;;22.27;53.62;93150.28;5054684;28;20405;-46
2022/08/13 09:38:20;;;;;;;12.07;7.82;;;;;;;22.22;54.91;93146.53;5053005;27;20036;-45
2022/08/13 09:40:48;;;;;;;;;;;;;;;22.22;54.57;93146.53;5054250;28;20505;-46
2022/08/13 09:43:18;;;;;;;;;;;;;;;22.15;54.63;93150.47;5052113;28;20005;-44
2022/08/13 09:45:43;;;;;;;;;;;;;;;22.21;55.03;93144.38;5052752;28;20347;-44
2022/08/13 09:48:09;;;;;;;;;;;;;;;22.28;55.54;93146.13;5054743;27;19912;-46
2022/08/13 09:50:36;;;;;;;;;;;;;;;22.33;54.93;93142.84;5049369;28;19912;-46
2022/08/13 09:53:01;;;;;;;;;;;;;;;22.47;54.14;93145.59;5053139;28;20873;-47
2022/08/13 09:55:26;;;;;;;;;;;;;;;22.54;53.49;93139.56;5049598;28;19912;-46
2022/08/13 09:57:52;;;;;;;;;;;;;;;22.55;53.91;93145.94;5048043;28;19908;-45
2022/08/13 10:00:27;;;;;;;;;;;;;;;22.63;54.25;93145.63;5043182;28;19913;-45
2022/08/13 10:02:56;;;;;;;;;;;;;;;22.67;54.62;93134.53;5041212;28;19913;-45
2022/08/13 10:05:22;;;;;;;;;;;;;;;22.67;54.32;93142.97;5030449;28;19936;-46
2022/08/13 10:07:47;;;;;;;;;;;;;;;22.77;54.80;93138.50;5039648;28;20390;-48
2022/08/13 10:10:13;;;;;;;;;;;;;;;22.84;53.42;93143.06;5038475;28;19920;-51
2022/08/13 10:12:39;;;;;;;;;;;;;;;22.97;54.72;93138.69;5038459;28;19959;-50
2022/08/13 10:15:05;;;;;;;;;;;;;;;23.10;54.67;93132.94;5039443;28;19960;-45
2022/08/13 10:18:03;;;;;;;;;;;;;;;23.25;53.29;93131.44;5039775;28;19916;-45
2022/08/13 10:20:29;;;;;;;;;;;;;;;23.46;54.21;93136.56;4995282;28;19920;-48
2022/08/13 10:22:54;;;;;;;;;;;;;;;23.68;54.47;93129.03;5029804;28;19913;-48
2022/08/13 10:25:20;;;;;;;;;;;;;;;23.84;52.80;93128.94;5028774;28;20423;-46
2022/08/13 10:27:46;;;;;;;;;;;;;;;23.95;50.61;93133.63;5029958;28;19909;-46
2022/08/13 10:30:12;;;;;;;;;;;;;;;24.12;50.71;93137.81;5029952;28;19913;-46
2022/08/13 10:32:37;;;;;;;;;;;;;;;24.31;47.44;93131.50;5029894;28;20003;-46
2022/08/13 10:35:03;;;;;;;;;;;;;;;24.37;47.32;93126.09;5029894;28;19978;-45
2022/08/13 10:37:28;;;;;;;;;;;;;;;24.60;47.82;93134.03;5029902;28;19909;-47
2022/08/13 10:39:55;;;;;;;;;;;;;;;24.80;47.14;93124.22;5029691;28;19913;-49
2022/08/13 10:42:21;;;;;;;;;;;;;;;25.03;47.63;93119.38;5030130;28;19909;-47
2022/08/13 10:44:52;;;;;;;;;;;;;;;25.36;46.79;93110.63;5029708;28;20380;-46
2022/08/13 10:47:21;;;;;;;;;;;;;;;25.81;46.88;93112.84;5030001;28;19909;-46
2022/08/13 10:49:49;;;;;;;;;;;;;;;26.02;44.56;93118.50;5029718;28;19913;-48
2022/08/13 10:52:18;;;;;;;;;;;;;;;26.09;45.11;93105.28;5029527;28;20522;-48
2022/08/13 10:54:44;;;;;;;;;;;;;;;26.21;44.77;93105.66;5028610;28;20008;-46
2022/08/13 10:57:11;;;;;;;;;;;;;;;26.40;44.37;93107.63;5035549;28;19912;-46
2022/08/13 10:59:36;;;;;;;;;;;;;;;26.41;45.25;93103.44;5049032;28;19916;-46
2022/08/13 11:02:06;;;;;;;;;;;;;;;26.52;44.76;93112.94;5037692;28;19913;-48
2022/08/13 11:04:32;;;;;;;;;;;;;;;26.48;44.82;93104.34;5049427;28;19912;-46
2022/08/13 11:06:58;;;;;;;;;;;;;;;26.52;44.06;93105.19;5049028;28;19913;-47
2022/08/13 11:09:25;;;;;;;;;;;;;;;26.70;43.16;93107.81;5047042;28;19962;-46
2022/08/13 11:11:50;;;;;;;;;;;;;;;26.66;42.99;93099.91;5049149;28;19961;-48
2022/08/13 11:14:17;;;;;;;;;;;;;;;26.58;44.33;93104.63;5048932;28;19913;-45
2022/08/13 11:19:17;;;;;;;;;;;;;;;26.88;43.49;93092.09;5048856;28;20312;-46
2022/08/13 11:21:45;;;;;;;;;;;;;;;26.90;42.63;93089.31;5047980;28;19913;-46
2022/08/13 11:24:11;;;;;;;;;;;;;;;26.79;44.74;93078.38;5049028;28;19909;-46
2022/08/13 11:26:36;;;;;;;;;;;;;;;26.78;43.10;93076.91;5049177;28;19965;-44
2022/08/13 11:29:03;;;;;;;;;;;;;;;26.78;44.81;93076.91;5048294;28;19920;-45
2022/08/13 11:31:28;;;;;;;;;;;;;;;26.86;43.94;93075.03;5048751;28;20007;-46
2022/08/13 11:33:53;;;;;;;;;;;;;;;26.95;42.61;93075.97;5048530;28;20003;-45
2022/08/13 11:36:19;;;;;;;;;;;;;;;26.65;42.64;93075.84;5048875;28;19921;-46
2022/08/13 11:38:44;;;;;;;;;;;;;;;26.47;44.40;93074.56;5048807;28;19913;-45
2022/08/13 11:41:10;;;;;;;;;;;;;;;26.19;45.25;93080.13;5035470;28;19941;-45
2022/08/13 11:43:35;;;;;;;;;;;;;;;26.07;43.70;93088.22;5038799;28;19916;-44
2022/08/13 11:46:01;;;;;;;;;;;;;;;25.76;43.09;93088.66;5036787;28;19957;-46
2022/08/13 11:48:26;;;;;;;;;;;;;;;25.38;43.46;93094.44;5038048;28;19942;-45
2022/08/13 11:50:51;;;;;;;;;;;;;;;24.99;44.64;93107.94;5036936;28;19917;-47
2022/08/13 11:53:18;;;;;;;;;;;;;;;24.74;45.88;93103.47;5038604;28;19959;-48
2022/08/13 11:55:43;;;;;;;;;;;;;;;24.54;46.65;93105.56;5042371;28;19921;-47
2022/08/13 11:58:08;;;;;;;;;;;;;;;24.41;47.65;93112.84;5037888;28;19908;-46
2022/08/13 12:00:35;;;;;;;;;;;;;;;24.35;47.72;93114.72;5038221;28;19920;-45
2022/08/13 12:03:00;;;;;;;;;;;;;;;24.30;48.50;93115.97;5040069;28;20409;-45
2022/08/13 12:05:25;;;;;;;;;;;;;;;24.15;48.15;93122.44;5044674;28;19917;-45
2022/08/13 12:07:51;;;;;;;;;;;;;;;23.99;49.43;93130.97;5038851;28;19924;-44
2022/08/13 12:10:16;;;;;;;;;;;;;;;23.75;50.57;93121.53;5035972;28;19965;-47
2022/08/13 12:12:42;;;;;;;;;;;;;;;23.39;51.95;93126.41;5037189;28;20415;-48
2022/08/13 12:15:08;;;;;;;;;;;;;;;22.81;54.36;93121.81;5035975;28;19913;-46
2022/08/13 12:17:33;;;;;;;;;;;;;;;22.61;55.81;93123.72;5037011;28;19921;-47
2022/08/13 12:19:58;;;;;;;;;;;;;;;22.40;57.04;93136.13;5035858;28;21235;-46
2022/08/13 12:22:24;;;;;;;;;;;;;;;22.22;58.21;93143.03;5033582;28;19917;-45
2022/08/13 12:24:51;;;;;;;;;;;;;;;21.71;60.63;93145.50;5040082;28;19913;-45
2022/08/13 12:27:18;;;;;;;;;;;;;;;21.48;62.77;93145.78;5041061;28;19920;-44
2022/08/13 12:29:43;;;;;;;;;;;;;;;;;;5043308;28;19912;-45
2022/08/13 12:32:08;;;;;;;;;;;;;;;21.24;66.73;93133.38;5043142;28;20385;-43
2022/08/13 12:34:36;;;;;;;;;;;;;;;21.09;65.60;93135.44;5038707;28;19917;-44
2022/08/13 12:37:01;;;;;;;;;;;;;;;21.21;64.90;93140.22;5038401;28;20426;-43
2022/08/13 12:39:27;;;;;;;;;;;;;;;21.23;66.18;93135.44;5036801;28;19944;-44
2022/08/13 12:41:52;;;;;;;;;;;;;;;21.23;65.57;93152.28;5037903;28;20368;-45
2022/08/13 12:44:17;;;;;;;;;;;;;;;21.22;67.02;93161.34;5037791;28;20020;-45
2022/08/13 12:46:43;;;;;;;;;;;;;;;21.19;66.41;93165.41;5041776;28;19938;-44